Time;durP1;ratioP1;P1;durP2;ratioP2;P2;SDS_P1;SDS_P2;PMS_P1;PMS_P2;Temp;Humidity;BMP_temperature;BMP_pressure;BME280_temperature;BME280_humidity;BME280_pressure;Samples;Min_cycle;Max_cycle;Signal;HPM_P1;HPM_P2
2021/08/09 00:00:17;;;;;;;5.88;2.13;;;;;;;15.85;89.97;96554.50;4998620;28;20209;-66
2021/08/09 00:02:45;;;;;;;4.05;2.25;;;;;;;16.19;88.10;96546.38;4999046;28;20230;-66
2021/08/09 00:05:11;;;;;;;4.32;2.10;;;;;;;16.18;88.20;96547.38;4998050;28;20203;-66
2021/08/09 00:07:38;;;;;;;4.03;2.03;;;;;;;16.08;88.88;96554.13;4999858;28;20217;-66
2021/08/09 00:10:05;;;;;;;5.88;2.33;;;;;;;16.27;88.93;96545.41;5000608;28;20222;-66
2021/08/09 00:12:32;;;;;;;5.03;2.08;;;;;;;16.46;88.65;96547.22;4998315;28;20293;-66
2021/08/09 00:14:58;;;;;;;8.10;2.50;;;;;;;16.11;89.22;96543.88;4999685;28;20207;-66
2021/08/09 00:17:25;;;;;;;4.85;2.15;;;;;;;16.25;89.37;96540.22;4999551;28;20206;-66
2021/08/09 00:19:52;;;;;;;4.45;2.20;;;;;;;16.36;90.60;96547.63;5000018;28;20209;-66
2021/08/09 00:22:19;;;;;;;8.60;2.83;;;;;;;16.29;90.36;96540.66;4999092;28;20223;-67
2021/08/09 00:24:45;;;;;;;6.30;2.35;;;;;;;16.28;90.56;96533.72;4999194;28;20583;-66
2021/08/09 00:27:12;;;;;;;3.42;2.30;;;;;;;16.35;90.02;96526.56;4999689;28;20205;-66
2021/08/09 00:29:38;;;;;;;6.97;2.38;;;;;;;16.45;89.33;96529.63;5000758;28;20203;-66
2021/08/09 00:32:05;;;;;;;5.22;2.20;;;;;;;16.34;89.14;96531.03;4999929;28;20238;-66
2021/08/09 00:34:33;;;;;;;3.60;2.33;;;;;;;16.38;89.75;96528.81;4999669;28;20198;-66
2021/08/09 00:37:01;;;;;;;6.28;2.45;;;;;;;16.42;90.51;96524.72;4998744;28;20232;-66
2021/08/09 00:39:27;;;;;;;2.95;2.25;;;;;;;16.33;89.39;96520.63;4999629;28;20203;-66
2021/08/09 00:41:54;;;;;;;3.22;2.22;;;;;;;16.21;90.01;96523.03;4999172;28;20388;-66
2021/08/09 00:44:20;;;;;;;2.75;2.28;;;;;;;16.06;88.75;96527.75;4998269;28;20797;-67
2021/08/09 00:46:47;;;;;;;3.10;1.98;;;;;;;15.86;90.15;96521.59;4997943;28;20709;-67
2021/08/09 00:49:13;;;;;;;3.72;2.30;;;;;;;16.06;89.18;96519.78;4998666;28;20202;-67
2021/08/09 00:51:40;;;;;;;2.95;2.53;;;;;;;16.04;89.40;96521.81;4998856;28;20206;-66
2021/08/09 00:54:10;;;;;;;5.22;3.15;;;;;;;16.13;89.78;96525.91;4999208;28;20597;-67
2021/08/09 00:56:36;;;;;;;6.85;3.03;;;;;;;15.94;91.62;96532.03;4998568;28;20280;-67
2021/08/09 00:59:03;;;;;;;6.78;2.13;;;;;;;15.95;90.26;96523.03;4999436;28;21182;-66
2021/08/09 01:01:29;;;;;;;4.38;2.25;;;;;;;16.21;89.04;96531.03;4999384;28;20202;-66
2021/08/09 01:03:56;;;;;;;4.53;2.08;;;;;;;16.23;89.12;96531.66;4998125;28;20238;-66
2021/08/09 01:06:23;;;;;;;6.22;2.42;;;;;;;16.17;89.70;96527.13;4998734;28;20205;-66
2021/08/09 01:09:02;;;;;;;4.15;2.40;;;;;;;16.54;88.71;96531.88;4998649;28;20213;-66
2021/08/09 01:11:36;;;;;;;3.72;2.20;;;;;;;16.46;87.92;96518.78;4998868;28;20210;-66
2021/08/09 01:14:09;;;;;;;3.83;2.40;;;;;;;16.33;88.75;96524.13;4998586;28;20218;-66
2021/08/09 01:16:38;;;;;;;5.35;2.47;;;;;;;16.33;89.37;96521.47;4997769;28;20675;-66
2021/08/09 01:19:16;;;;;;;3.13;1.90;;;;;;;16.37;90.33;96522.69;4998643;28;20225;-66
2021/08/09 01:21:44;;;;;;;3.75;2.10;;;;;;;16.21;90.16;96531.03;4998672;28;20225;-67
2021/08/09 01:24:23;;;;;;;4.70;2.42;;;;;;;16.25;88.60;96532.25;4998751;28;20226;-66
2021/08/09 01:26:58;;;;;;;4.50;2.28;;;;;;;16.18;89.15;96520.81;4999139;28;21160;-66
2021/08/09 01:29:31;;;;;;;3.42;2.22;;;;;;;16.38;87.75;96523.47;5000571;28;20217;-66
2021/08/09 01:31:59;;;;;;;5.68;2.17;;;;;;;16.24;86.70;96520.00;4998844;28;20298;-66
2021/08/09 01:34:28;;;;;;;3.22;1.90;;;;;;;16.29;86.33;96522.06;4998519;28;20205;-66
2021/08/09 01:36:57;;;;;;;3.80;2.30;;;;;;;16.21;86.75;96516.91;4998530;28;20210;-66
2021/08/09 01:39:24;;;;;;;6.15;2.20;;;;;;;15.87;87.99;96512.59;5000087;28;20207;-66
2021/08/09 01:41:52;;;;;;;5.63;2.10;;;;;;;15.91;89.67;96513.00;4997840;28;20582;-66
2021/08/09 01:44:19;;;;;;;4.32;2.00;;;;;;;16.00;88.66;96509.16;4996941;28;20227;-66
2021/08/09 01:46:48;;;;;;;3.58;2.10;;;;;;;16.14;88.48;96506.28;4998259;28;20210;-66
2021/08/09 01:49:16;;;;;;;5.82;2.20;;;;;;;15.86;88.75;96512.81;4998162;28;20218;-66
2021/08/09 01:51:43;;;;;;;5.38;2.05;;;;;;;15.96;86.63;96503.41;4997975;28;20210;-66
2021/08/09 01:54:11;;;;;;;2.25;1.95;;;;;;;16.07;85.56;96508.09;4997852;28;20210;-66
2021/08/09 01:56:39;;;;;;;3.10;2.00;;;;;;;16.10;85.43;96507.72;4997989;28;20209;-66
2021/08/09 01:59:06;;;;;;;5.97;1.80;;;;;;;15.87;84.35;96509.94;4998191;28;20202;-66
2021/08/09 02:01:33;;;;;;;4.65;2.00;;;;;;;15.83;86.38;96513.19;4998357;28;20210;-66
2021/08/09 02:04:01;;;;;;;2.30;1.80;;;;;;;15.80;86.61;96520.78;4997478;28;20245;-66
2021/08/09 02:06:27;;;;;;;2.80;1.52;;;;;;;15.72;85.30;96518.28;4997128;28;21351;-66
2021/08/09 02:08:54;;;;;;;7.18;1.80;;;;;;;15.70;86.40;96521.16;4998497;28;20561;-66
2021/08/09 02:11:25;;;;;;;3.20;1.92;;;;;;;15.92;85.43;96523.44;4998605;28;20221;-66
2021/08/09 02:13:55;;;;;;;2.53;1.60;;;;;;;15.93;84.65;96525.06;4997542;28;20222;-66
2021/08/09 02:16:31;;;;;;;2.40;1.67;;;;;;;16.04;83.18;96518.34;4997234;28;20210;-66
2021/08/09 02:19:02;;;;;;;3.65;1.80;;;;;;;15.93;85.30;96521.59;4997769;28;20195;-66
2021/08/09 02:21:33;;;;;;;1.83;1.50;;;;;;;15.75;86.28;96520.56;4997121;28;20635;-66
2021/08/09 02:24:05;;;;;;;3.50;1.80;;;;;;;15.61;88.41;96514.38;4997457;28;20230;-66
2021/08/09 02:26:34;;;;;;;3.05;1.60;;;;;;;15.56;88.71;96511.50;4997097;28;20202;-66
2021/08/09 02:29:06;;;;;;;6.15;2.75;;;;;;;15.56;87.16;96510.69;4997753;28;20682;-66
2021/08/09 02:31:33;;;;;;;2.47;1.50;;;;;;;15.55;88.59;96514.38;4997153;28;20218;-66
2021/08/09 02:34:03;;;;;;;4.57;1.80;;;;;;;15.32;88.92;96511.22;4997238;28;20775;-66
2021/08/09 02:36:29;;;;;;;2.17;1.77;;;;;;;15.38;89.11;96516.56;4996123;28;20206;-66
2021/08/09 02:38:57;;;;;;;1.88;1.40;;;;;;;15.52;86.36;96514.78;4997575;28;20210;-66
2021/08/09 02:41:24;;;;;;;1.80;1.50;;;;;;;15.67;85.44;96513.59;4997496;28;20206;-66
2021/08/09 02:43:51;;;;;;;3.72;1.77;;;;;;;15.46;86.91;96512.91;4993012;28;20234;-66
2021/08/09 02:46:19;;;;;;;2.47;1.55;;;;;;;15.44;85.99;96520.25;4996556;28;20209;-66
2021/08/09 02:48:47;;;;;;;2.53;1.77;;;;;;;15.16;87.89;96519.53;4997699;28;20217;-66
2021/08/09 02:51:17;;;;;;;2.90;2.10;;;;;;;15.21;88.66;96522.44;4997204;28;20676;-66
2021/08/09 02:53:44;;;;;;;6.30;2.15;;;;;;;15.25;87.91;96526.34;4996161;28;20813;-66
2021/08/09 02:56:12;;;;;;;3.15;1.73;;;;;;;15.32;88.79;96529.81;4996579;28;20209;-66
2021/08/09 02:58:39;;;;;;;4.00;1.80;;;;;;;15.25;88.99;96529.00;4997739;28;20199;-66
2021/08/09 03:01:05;;;;;;;6.55;1.90;;;;;;;15.28;87.53;96525.94;4997174;28;20213;-66
2021/08/09 03:03:35;;;;;;;2.53;1.40;;;;;;;15.48;85.81;96521.53;4997010;28;20240;-66
2021/08/09 03:06:01;;;;;;;2.90;1.77;;;;;;;15.31;86.21;96522.88;4996294;28;20203;-66
2021/08/09 03:08:30;;;;;;;3.45;1.67;;;;;;;15.30;87.25;96529.22;4996840;28;20261;-66
2021/08/09 03:10:57;;;;;;;4.03;1.65;;;;;;;15.18;86.55;96532.59;4997118;28;20234;-66
2021/08/09 03:13:26;;;;;;;3.10;1.70;;;;;;;15.25;87.48;96534.31;4996893;28;20730;-66
2021/08/09 03:15:53;;;;;;;4.07;1.65;;;;;;;15.07;87.98;96538.47;4996081;28;20225;-66
2021/08/09 03:18:20;;;;;;;5.97;2.10;;;;;;;15.04;88.81;96542.31;4996738;28;20210;-66
2021/08/09 03:20:46;;;;;;;3.78;1.60;;;;;;;15.04;88.17;96552.94;4998073;28;20207;-66
2021/08/09 03:23:13;;;;;;;6.30;1.80;;;;;;;15.17;86.89;96549.53;4998197;28;20245;-66
2021/08/09 03:25:41;;;;;;;3.00;1.63;;;;;;;15.36;87.82;96547.84;4997252;28;20222;-66
2021/08/09 03:28:07;;;;;;;2.17;1.40;;;;;;;15.19;85.73;96545.66;4997932;28;20211;-66
2021/08/09 03:30:34;;;;;;;4.28;1.85;;;;;;;15.28;85.98;96544.53;4997502;28;21006;-66
2021/08/09 03:33:00;;;;;;;4.93;2.00;;;;;;;15.08;87.30;96543.56;4996801;28;20321;-66
2021/08/09 03:35:27;;;;;;;6.22;2.17;;;;;;;15.05;86.86;96543.97;4996890;28;20203;-66
2021/08/09 03:37:53;;;;;;;3.10;1.98;;;;;;;15.19;86.26;96556.28;4997362;28;21009;-66
2021/08/09 03:40:20;;;;;;;7.93;2.00;;;;;;;14.95;87.55;96554.13;4997169;28;20206;-66
2021/08/09 03:42:48;;;;;;;1.83;1.60;;;;;;;15.16;85.38;96545.25;4997012;28;20229;-66
2021/08/09 03:45:14;;;;;;;5.55;2.00;;;;;;;14.85;85.12;96547.53;4996378;28;20749;-66
2021/08/09 03:47:41;;;;;;;4.68;2.50;;;;;;;14.85;87.98;96558.97;4996864;28;20202;-66
2021/08/09 03:50:09;;;;;;;4.28;1.75;;;;;;;15.01;88.07;96552.53;5000771;28;20256;-66
2021/08/09 03:52:35;;;;;;;4.70;1.92;;;;;;;14.87;88.44;96558.78;4999621;28;20229;-66
2021/08/09 03:55:02;;;;;;;7.80;2.20;;;;;;;14.99;88.36;96549.25;5000899;28;20221;-66
2021/08/09 03:57:28;;;;;;;3.05;2.05;;;;;;;15.03;87.34;96556.63;5001466;28;20249;-66
2021/08/09 03:59:56;;;;;;;2.75;2.05;;;;;;;15.01;86.76;96550.69;5003215;28;20633;-66
2021/08/09 04:02:29;;;;;;;4.95;2.20;;;;;;;14.87;88.58;96551.63;5001495;28;20276;-66
2021/08/09 04:04:57;;;;;;;6.20;2.10;;;;;;;14.59;88.24;96554.50;5002893;28;20225;-66
2021/08/09 04:07:24;;;;;;;5.80;2.50;;;;;;;14.64;87.57;96555.56;5002191;28;20206;-66
2021/08/09 04:09:51;;;;;;;5.15;2.67;;;;;;;14.63;87.57;96546.78;5003125;28;20256;-66
2021/08/09 04:12:17;;;;;;;5.47;2.78;;;;;;;14.72;86.45;96553.56;5003838;28;20222;-66
2021/08/09 04:14:44;;;;;;;4.32;2.75;;;;;;;14.64;87.42;96552.94;5001210;28;20198;-66
2021/08/09 04:17:11;;;;;;;5.85;2.70;;;;;;;14.69;88.07;96553.97;5001818;28;20217;-66
2021/08/09 04:19:38;;;;;;;9.43;2.97;;;;;;;14.48;88.63;96560.34;5002400;28;20202;-66
2021/08/09 04:22:05;;;;;;;5.68;2.85;;;;;;;14.45;89.08;96561.56;5001238;28;20222;-66
2021/08/09 04:24:31;;;;;;;9.82;2.70;;;;;;;14.41;87.95;96559.47;5001862;28;20229;-66
2021/08/09 04:26:58;;;;;;;8.18;2.70;;;;;;;14.52;86.86;96556.31;5000402;28;20566;-66
2021/08/09 04:29:24;;;;;;;4.18;2.85;;;;;;;14.61;87.45;96563.09;5000945;28;20226;-66
2021/08/09 04:31:51;;;;;;;5.70;3.03;;;;;;;14.61;88.56;96553.28;5002357;28;20213;-66
2021/08/09 04:34:19;;;;;;;6.03;2.78;;;;;;;14.77;88.52;96547.69;5002766;28;20639;-66
2021/08/09 04:36:45;;;;;;;7.25;3.10;;;;;;;14.56;88.01;96542.47;5002041;28;20198;-66
2021/08/09 04:39:12;;;;;;;7.05;2.83;;;;;;;14.78;87.15;96542.19;5001135;28;20206;-66
2021/08/09 04:41:38;;;;;;;3.53;2.35;;;;;;;14.50;87.41;96547.69;5001676;28;20662;-66
2021/08/09 04:44:05;;;;;;;5.07;2.25;;;;;;;14.58;87.01;96547.59;5001383;28;21236;-66
2021/08/09 04:46:32;;;;;;;3.55;2.50;;;;;;;14.56;87.31;96547.78;5000971;28;20333;-66
2021/08/09 04:48:58;;;;;;;7.55;2.97;;;;;;;14.40;89.15;96541.94;5001456;28;20325;-66
2021/08/09 04:51:26;;;;;;;4.78;2.97;;;;;;;14.62;89.64;96543.53;5002604;28;20198;-66
2021/08/09 04:53:53;;;;;;;6.63;3.30;;;;;;;14.70;88.48;96549.47;5001881;28;20223;-66
2021/08/09 04:56:19;;;;;;;7.18;3.15;;;;;;;14.75;88.92;96563.81;4999226;28;20203;-66
2021/08/09 04:58:45;;;;;;;6.05;3.10;;;;;;;14.82;89.11;96567.31;4999704;28;20437;-66
2021/08/09 05:01:12;;;;;;;7.40;3.30;;;;;;;14.73;90.35;96560.53;4999332;28;20561;-66
2021/08/09 05:03:39;;;;;;;8.38;3.40;;;;;;;14.96;90.37;96565.56;4999716;28;20222;-66
2021/08/09 05:06:08;;;;;;;9.68;3.35;;;;;;;15.14;90.28;96557.91;4999430;28;20230;-66
2021/08/09 05:08:36;;;;;;;7.07;3.28;;;;;;;15.29;89.38;96556.78;4999557;28;20687;-66
2021/08/09 05:11:02;;;;;;;7.47;3.50;;;;;;;15.21;89.96;96556.97;5000337;28;20211;-66
2021/08/09 05:13:29;;;;;;;12.52;3.70;;;;;;;15.26;90.32;96557.16;4999798;28;20222;-66
2021/08/09 05:15:56;;;;;;;6.15;3.28;;;;;;;15.24;91.03;96553.09;4999753;28;20362;-66
2021/08/09 05:18:23;;;;;;;7.18;3.50;;;;;;;15.26;91.17;96557.16;5000988;28;20834;-66
2021/08/09 05:20:49;;;;;;;8.25;3.30;;;;;;;15.33;90.63;96550.06;5000216;28;20205;-66
2021/08/09 05:23:16;;;;;;;6.30;2.78;;;;;;;15.38;90.33;96555.59;5000374;28;20218;-66
2021/08/09 05:25:44;;;;;;;6.35;3.20;;;;;;;15.67;89.46;96539.31;4999891;28;20719;-66
2021/08/09 05:28:10;;;;;;;7.90;3.50;;;;;;;15.49;92.39;96544.38;4999671;28;20206;-67
2021/08/09 05:30:37;;;;;;;4.72;3.38;;;;;;;15.32;95.25;96548.41;4998377;28;20663;-66
2021/08/09 05:33:05;;;;;;;7.68;2.63;;;;;;;15.45;97.40;96545.78;5000011;28;20226;-66
2021/08/09 05:35:31;;;;;;;8.70;2.90;;;;;;;15.84;93.40;96548.59;4999366;28;20198;-66
2021/08/09 05:37:59;;;;;;;8.75;3.88;;;;;;;15.74;92.27;96551.59;5000428;28;20202;-66
2021/08/09 05:40:26;;;;;;;4.88;3.55;;;;;;;16.00;90.80;96552.50;4999705;28;20675;-66
2021/08/09 05:42:54;;;;;;;8.95;3.88;;;;;;;16.29;90.78;96556.63;4999737;28;20222;-66
2021/08/09 05:45:21;;;;;;;12.23;4.05;;;;;;;16.20;90.80;96558.63;4998164;28;20710;-66
2021/08/09 05:47:47;;;;;;;8.27;4.03;;;;;;;16.37;90.88;96561.72;4999651;28;20572;-66
2021/08/09 05:50:14;;;;;;;5.70;4.05;;;;;;;16.44;90.98;96550.06;4999189;28;20229;-66
2021/08/09 05:52:40;;;;;;;7.97;4.07;;;;;;;16.50;90.44;96546.59;4996713;28;20994;-66
2021/08/09 05:55:08;;;;;;;10.52;4.95;;;;;;;16.54;91.05;96545.16;4998295;28;20203;-66
2021/08/09 05:57:35;;;;;;;10.57;4.95;;;;;;;16.47;91.16;96549.69;4996332;28;20217;-66
2021/08/09 06:00:04;;;;;;;7.50;5.40;;;;;;;16.70;91.56;96555.38;4996033;28;20207;-66
2021/08/09 06:02:30;;;;;;;12.52;5.70;;;;;;;16.70;90.64;96560.69;4997084;28;20268;-66
2021/08/09 06:04:58;;;;;;;6.53;4.90;;;;;;;16.82;90.89;96556.41;4997788;28;20226;-66
2021/08/09 06:07:24;;;;;;;8.52;4.63;;;;;;;16.54;91.04;96556.63;4996318;28;20203;-66
2021/08/09 06:09:50;;;;;;;10.00;5.43;;;;;;;16.65;91.28;96563.19;4997390;28;20198;-66
2021/08/09 06:12:17;;;;;;;7.13;4.55;;;;;;;16.75;90.45;96560.91;4999052;28;20222;-66
2021/08/09 06:14:43;;;;;;;8.05;4.88;;;;;;;16.57;91.27;96566.03;4993877;28;20289;-66
2021/08/09 06:17:11;;;;;;;7.15;4.82;;;;;;;16.89;91.73;96571.34;4996828;28;20211;-66
2021/08/09 06:19:38;;;;;;;7.68;5.30;;;;;;;17.08;90.98;96569.66;4999435;28;21259;-66
2021/08/09 06:22:05;;;;;;;9.30;5.00;;;;;;;17.23;90.66;96560.38;4999020;28;20600;-67
2021/08/09 06:24:32;;;;;;;11.02;4.72;;;;;;;16.80;90.60;96571.75;4996530;28;20194;-67
2021/08/09 06:26:58;;;;;;;9.50;4.40;;;;;;;17.00;90.23;96562.69;4997976;28;20221;-66
2021/08/09 06:29:26;;;;;;;7.70;4.90;;;;;;;16.99;91.34;96563.72;4998110;28;20621;-66
2021/08/09 06:31:52;;;;;;;10.07;4.68;;;;;;;17.11;89.21;96568.19;4997577;28;20203;-66
2021/08/09 06:34:20;;;;;;;9.75;4.63;;;;;;;17.43;88.73;96564.63;4998528;28;20203;-66
2021/08/09 06:36:46;;;;;;;6.95;3.58;;;;;;;16.90;90.07;96572.13;4999669;28;20222;-66
2021/08/09 06:39:18;;;;;;;7.93;3.83;;;;;;;16.90;89.98;96564.97;5002676;28;20677;-66
2021/08/09 06:41:45;;;;;;;7.03;3.83;;;;;;;17.11;88.87;96575.38;4999878;28;20214;-66
2021/08/09 06:44:11;;;;;;;6.10;4.07;;;;;;;17.39;87.83;96575.94;5000779;28;20206;-66
2021/08/09 06:46:38;;;;;;;8.75;4.22;;;;;;;17.54;87.50;96577.31;4998827;28;20280;-66
2021/08/09 06:49:04;;;;;;;6.90;3.85;;;;;;;17.72;86.94;96566.78;4998603;28;20202;-66
2021/08/09 06:51:32;;;;;;;13.35;5.18;;;;;;;17.68;87.50;96572.72;5000553;28;20257;-66
2021/08/09 06:53:59;;;;;;;5.57;3.72;;;;;;;17.71;87.93;96573.13;5000781;28;20226;-66
2021/08/09 06:56:26;;;;;;;8.02;3.70;;;;;;;17.98;85.02;96569.28;5000146;28;20199;-68
2021/08/09 06:58:52;;;;;;;8.52;3.58;;;;;;;18.25;84.43;96579.59;4998994;28;20247;-67
2021/08/09 07:01:19;;;;;;;8.27;3.55;;;;;;;18.45;84.10;96567.75;4992148;28;20213;-66
2021/08/09 07:03:46;;;;;;;6.45;3.55;;;;;;;18.39;86.18;96563.28;4994202;28;20230;-66
2021/08/09 07:06:18;;;;;;;11.85;4.28;;;;;;;18.90;84.60;96571.06;4994947;28;20320;-66
2021/08/09 07:08:46;;;;;;;4.80;3.45;;;;;;;18.65;80.70;96568.41;4994691;28;20671;-66
2021/08/09 07:11:13;;;;;;;6.88;3.25;;;;;;;18.40;83.18;96564.09;4995115;28;20210;-65
2021/08/09 07:13:39;;;;;;;8.05;3.30;;;;;;;18.36;82.31;96571.72;4995580;28;20219;-67
2021/08/09 07:16:06;;;;;;;6.75;3.55;;;;;;;18.45;82.17;96573.06;4995562;28;20215;-67
2021/08/09 07:18:33;;;;;;;6.20;3.35;;;;;;;18.68;81.13;96567.97;4996405;28;20199;-68
2021/08/09 07:21:00;;;;;;;7.45;3.58;;;;;;;18.59;83.45;96569.28;4996673;28;20585;-66
2021/08/09 07:23:26;;;;;;;5.75;3.17;;;;;;;18.76;81.65;96578.38;4999285;28;20229;-68
2021/08/09 07:25:54;;;;;;;8.25;3.50;;;;;;;19.10;82.39;96581.34;4998723;28;20225;-67
2021/08/09 07:28:21;;;;;;;9.65;3.33;;;;;;;19.20;82.33;96570.16;4995973;28;20205;-67
2021/08/09 07:30:47;;;;;;;6.50;3.13;;;;;;;19.36;80.52;96572.22;4999940;28;20220;-68
2021/08/09 07:33:14;;;;;;;5.47;3.08;;;;;;;19.43;77.59;96571.13;4999987;28;20223;-66
2021/08/09 07:35:40;;;;;;;6.75;3.28;;;;;;;19.49;79.05;96561.38;4998422;28;20209;-67
2021/08/09 07:38:07;;;;;;;5.30;3.30;;;;;;;19.37;81.05;96563.19;4997102;28;20206;-67
2021/08/09 07:40:33;;;;;;;4.53;2.90;;;;;;;19.18;83.16;96558.88;4998306;28;20210;-66
2021/08/09 07:43:01;;;;;;;4.75;2.83;;;;;;;19.51;81.04;96559.31;4997842;28;20229;-67
2021/08/09 07:45:28;;;;;;;6.15;3.13;;;;;;;19.40;82.16;96560.06;4996740;28;20229;-67
2021/08/09 07:47:55;;;;;;;5.35;2.90;;;;;;;19.37;81.81;96563.19;4993864;28;21298;-68
2021/08/09 07:50:22;;;;;;;4.95;2.72;;;;;;;19.38;81.70;96557.59;4999196;28;20203;-67
2021/08/09 07:52:50;;;;;;;4.65;2.88;;;;;;;19.60;83.00;96559.59;4997965;28;20234;-67
2021/08/09 07:55:17;;;;;;;6.47;3.03;;;;;;;19.56;80.03;96551.44;4994778;28;20655;-67
2021/08/09 07:57:43;;;;;;;6.68;3.20;;;;;;;19.77;77.84;96549.91;4995658;28;20207;-68
2021/08/09 08:00:14;;;;;;;5.10;2.67;;;;;;;19.86;77.81;96556.59;4995951;28;20218;-67
2021/08/09 08:02:41;;;;;;;6.30;3.22;;;;;;;19.87;79.18;96547.53;4996706;28;20222;-68
2021/08/09 08:05:08;;;;;;;5.85;2.80;;;;;;;19.92;78.13;96554.88;4999117;28;20211;-67
2021/08/09 08:07:34;;;;;;;6.88;2.65;;;;;;;20.10;77.81;96560.19;4998365;28;20203;-66
2021/08/09 08:10:02;;;;;;;5.57;2.50;;;;;;;20.05;76.60;96565.41;4997220;28;20265;-66
2021/08/09 08:12:28;;;;;;;6.50;2.60;;;;;;;20.30;75.41;96566.88;4996971;28;20222;-68
2021/08/09 08:14:55;;;;;;;8.73;2.10;;;;;;;20.32;77.58;96557.56;4997010;28;20203;-67
2021/08/09 08:17:24;;;;;;;2.97;2.42;;;;;;;20.49;76.13;96571.13;4996469;28;20199;-69
2021/08/09 08:19:50;;;;;;;5.07;2.13;;;;;;;20.58;73.33;96572.41;4994455;28;20208;-67
2021/08/09 08:22:17;;;;;;;5.45;2.28;;;;;;;20.69;74.00;96567.09;4992059;28;20226;-67
2021/08/09 08:24:44;;;;;;;4.05;1.90;;;;;;;20.75;73.77;96573.41;4996028;28;20210;-68
2021/08/09 08:27:11;;;;;;;8.10;2.90;;;;;;;20.52;73.69;96566.13;4996616;28;20222;-68
2021/08/09 08:29:37;;;;;;;4.13;1.80;;;;;;;20.95;74.09;96567.50;4998488;28;20667;-67
2021/08/09 08:32:05;;;;;;;3.30;1.80;;;;;;;20.87;73.54;96577.72;5003717;28;20234;-67
2021/08/09 08:34:33;;;;;;;3.13;1.90;;;;;;;21.22;70.24;96571.31;5000665;28;21068;-67
2021/08/09 08:36:59;;;;;;;3.08;1.77;;;;;;;21.03;71.41;96577.03;5001062;28;20294;-67
2021/08/09 08:39:26;;;;;;;4.93;1.80;;;;;;;21.22;74.25;96573.16;5001877;28;20199;-67
2021/08/09 08:41:53;;;;;;;4.07;1.80;;;;;;;21.66;71.72;96574.16;5003666;28;20218;-67
2021/08/09 08:44:20;;;;;;;3.55;1.50;;;;;;;21.88;70.41;96571.66;5002540;28;20289;-67
2021/08/09 08:46:48;;;;;;;4.55;1.48;;;;;;;22.09;69.21;96566.44;5000594;28;20226;-67
2021/08/09 08:49:16;;;;;;;2.50;1.30;;;;;;;22.17;67.36;96568.75;5001559;28;20206;-67
2021/08/09 08:51:46;;;;;;;5.63;1.35;;;;;;;22.32;63.81;96566.38;5001093;28;20590;-67
2021/08/09 08:54:13;;;;;;;1.45;1.10;;;;;;;22.46;62.15;96579.25;5000112;28;20198;-67
2021/08/09 08:56:40;;;;;;;1.67;1.35;;;;;;;22.63;61.08;96577.38;4999820;28;20199;-67
2021/08/09 08:59:11;;;;;;;4.53;1.27;;;;;;;22.66;62.95;96584.16;5003017;28;20198;-67
2021/08/09 09:01:39;;;;;;;2.55;1.30;;;;;;;22.65;63.76;96588.72;5002530;28;20195;-67
2021/08/09 09:04:23;;;;;;;3.95;1.65;;;;;;;22.47;62.21;96583.56;5003681;28;20203;-68
2021/08/09 09:07:00;;;;;;;7.13;1.38;;;;;;;22.78;60.22;96581.16;5003021;28;20241;-67
2021/08/09 09:09:28;;;;;;;4.30;1.40;;;;;;;22.91;58.06;96585.38;5002293;28;20201;-68
2021/08/09 09:11:54;;;;;;;2.50;1.02;;;;;;;22.85;56.27;96589.06;5000407;28;20243;-67
2021/08/09 09:14:26;;;;;;;1.35;1.00;;;;;;;22.85;55.11;96579.13;5001410;28;20206;-68
2021/08/09 09:16:52;;;;;;;4.47;1.35;;;;;;;22.83;53.11;96577.72;5001726;28;20210;-67
2021/08/09 09:19:35;;;;;;;2.13;1.15;;;;;;;23.50;52.08;96582.81;4998312;28;20199;-67
2021/08/09 09:22:05;;;;;;;3.42;1.10;;;;;;;23.46;52.80;96569.03;4997119;28;20237;-68
2021/08/09 09:24:32;;;;;;;3.08;0.80;;;;;;;23.46;54.81;96570.94;4997266;28;20207;-67
2021/08/09 09:27:02;;;;;;;2.40;1.20;;;;;;;23.17;53.96;96576.69;4996290;28;20233;-67
2021/08/09 09:29:34;;;;;;;2.05;1.00;;;;;;;23.29;52.32;96575.50;4996485;28;20296;-67
2021/08/09 09:32:13;;;;;;;4.22;1.10;;;;;;;23.67;54.61;96572.81;4996949;28;20695;-67
2021/08/09 09:34:46;;;;;;;4.38;1.20;;;;;;;23.64;54.50;96574.13;4997258;28;20206;-67
2021/08/09 09:37:22;;;;;;;2.90;1.10;;;;;;;23.61;53.58;96574.63;4996463;28;20202;-67
2021/08/09 09:39:49;;;;;;;2.30;1.08;;;;;;;23.64;56.44;96584.88;4996236;28;20210;-67
2021/08/09 09:42:15;;;;;;;3.80;1.10;;;;;;;23.35;57.44;96586.09;4997017;28;20222;-67
2021/08/09 09:44:44;;;;;;;3.03;1.05;;;;;;;24.09;52.61;96586.28;4997808;28;20217;-67
2021/08/09 09:47:25;;;;;;;1.45;1.08;;;;;;;24.22;50.32;96575.13;4995743;28;20234;-67
2021/08/09 09:49:53;;;;;;;1.70;0.98;;;;;;;23.30;52.52;96576.34;4996830;28;20202;-67
2021/08/09 09:52:32;;;;;;;5.30;2.55;;;;;;;23.79;53.23;96566.28;4997417;28;20225;-67
2021/08/09 09:55:00;;;;;;;3.78;1.23;;;;;;;24.04;52.79;96566.56;4996995;28;20225;-67
2021/08/09 09:57:28;;;;;;;2.17;0.98;;;;;;;23.85;54.98;96564.47;4996047;28;20203;-67
2021/08/09 09:59:57;;;;;;;2.60;1.13;;;;;;;24.16;50.78;96559.16;4997382;28;20221;-67
2021/08/09 10:02:23;;;;;;;1.90;0.90;;;;;;;24.13;51.41;96559.66;4997431;28;20288;-68
2021/08/09 10:04:50;;;;;;;6.10;1.20;;;;;;;24.16;51.90;96557.28;4997102;28;20207;-67
2021/08/09 10:07:19;;;;;;;1.13;1.00;;;;;;;24.37;55.49;96555.59;4995809;28;20218;-67
2021/08/09 10:09:49;;;;;;;4.03;1.13;;;;;;;24.13;51.53;96568.56;4996276;28;20207;-67
2021/08/09 10:12:18;;;;;;;2.50;1.20;;;;;;;24.28;55.36;96562.53;4996014;28;20230;-68
2021/08/09 10:14:47;;;;;;;3.47;1.15;;;;;;;24.71;54.87;96555.16;4996812;28;20202;-66
2021/08/09 10:17:16;;;;;;;3.25;1.35;;;;;;;24.90;51.52;96551.00;4995519;28;20199;-66
2021/08/09 10:19:46;;;;;;;3.20;0.98;;;;;;;25.14;49.79;96546.88;4996807;28;20206;-67
2021/08/09 10:22:13;;;;;;;3.08;1.10;;;;;;;25.01;51.56;96544.59;4996425;28;20223;-67
2021/08/09 10:24:42;;;;;;;1.88;1.00;;;;;;;25.10;51.88;96548.47;4997186;28;20252;-67
2021/08/09 10:27:10;;;;;;;2.47;1.08;;;;;;;25.42;51.12;96542.75;4996077;28;20259;-67
2021/08/09 10:30:10;;;;;;;2.53;1.02;;;;;;;25.75;49.40;96552.38;4998382;28;20194;-67
2021/08/09 10:32:43;;;;;;;2.25;1.02;;;;;;;24.86;50.54;96547.16;4997740;28;20230;-68
2021/08/09 10:35:56;;;;;;;1.75;1.17;;;;;;;25.59;50.67;96547.97;4997241;28;20682;-67
2021/08/09 10:38:24;;;;;;;4.07;1.02;;;;;;;25.25;51.92;96546.66;4996582;28;20209;-68
2021/08/09 10:41:39;;;;;;;3.65;1.20;;;;;;;25.56;49.74;96545.75;4998126;28;20210;-68
2021/08/09 10:44:26;;;;;;;2.13;1.15;;;;;;;25.73;50.31;96546.44;4946668;28;20239;-68
2021/08/09 10:46:55;;;;;;;2.72;1.30;;;;;;;25.70;48.49;96541.50;4942842;28;20275;-67
2021/08/09 10:49:50;;;;;;;6.97;1.10;;;;;;;25.82;49.41;96548.34;4979124;28;20198;-68
2021/08/09 10:52:35;;;;;;;1.75;1.08;;;;;;;24.87;49.70;96540.72;4997323;28;20798;-68
2021/08/09 10:55:44;;;;;;;5.88;1.20;;;;;;;25.63;49.34;96549.06;4996421;28;20240;-67
2021/08/09 10:58:46;;;;;;;4.03;1.10;;;;;;;24.89;49.41;96550.16;4996623;28;20210;-67
2021/08/09 11:01:14;;;;;;;2.72;1.23;;;;;;;25.43;50.29;96552.47;4999480;28;20317;-67
2021/08/09 11:04:15;;;;;;;4.05;1.40;;;;;;;25.97;50.22;96556.53;4999102;28;20225;-67
2021/08/09 11:06:45;;;;;;;1.88;1.10;;;;;;;26.29;46.69;96549.84;5000401;28;21060;-68
2021/08/09 11:09:46;;;;;;;2.67;1.38;;;;;;;26.31;46.51;96558.53;4999832;28;20685;-67
2021/08/09 11:12:19;;;;;;;4.03;0.98;;;;;;;26.43;46.76;96556.41;4999649;28;20584;-68
2021/08/09 11:15:22;;;;;;;3.42;1.10;;;;;;;26.47;45.68;96563.69;4999566;28;20575;-68
2021/08/09 11:17:53;;;;;;;3.17;1.05;;;;;;;25.93;46.58;96552.72;4999230;28;20194;-68
2021/08/09 11:20:22;;;;;;;2.67;0.90;;;;;;;25.20;45.95;96557.44;4998668;28;20214;-67
2021/08/09 11:22:59;;;;;;;2.30;0.88;;;;;;;24.83;45.62;96553.88;4999733;28;20318;-67
2021/08/09 11:25:27;;;;;;;1.55;1.00;;;;;;;25.16;47.92;96550.94;4999158;28;20202;-66
2021/08/09 11:27:58;;;;;;;4.30;1.20;;;;;;;25.79;49.46;96546.19;4999249;28;20988;-68
2021/08/09 11:30:32;;;;;;;7.25;1.20;;;;;;;26.44;48.27;96537.22;5000304;28;20284;-67
2021/08/09 11:33:00;;;;;;;2.05;0.93;;;;;;;26.36;45.04;96536.13;5000117;28;20344;-68
2021/08/09 11:35:27;;;;;;;2.45;1.30;;;;;;;26.42;44.45;96538.56;4998903;28;20199;-68
2021/08/09 11:37:54;;;;;;;2.35;1.08;;;;;;;26.52;43.72;96536.66;4999831;28;20214;-67
2021/08/09 11:40:39;;;;;;;3.70;1.15;;;;;;;27.05;44.20;96543.47;4999786;28;20214;-68
2021/08/09 11:43:06;;;;;;;1.85;0.98;;;;;;;26.90;44.82;96546.97;5000592;28;21145;-67